Time;durP1;ratioP1;P1;durP2;ratioP2;P2;SDS_P1;SDS_P2;PMS_P1;PMS_P2;Temp;Humidity;BMP_temperature;BMP_pressure;BME280_temperature;BME280_humidity;BME280_pressure;Samples;Min_cycle;Max_cycle;Signal;HPM_P1;HPM_P2
2021/04/17 00:07:07;;;;;;;6.10;5.60;;;11.30;57.60;;;;;;5002499;28;20556;-84
2021/04/17 00:10:40;;;;;;;;;;;;;;;;;;;;;
2021/04/17 00:13:57;;;;;;;6.30;5.50;;;11.30;56.90;;;;;;4971332;28;20455;-82
2021/04/17 00:16:48;;;;;;;7.70;5.87;;;11.40;56.70;;;;;;4993916;28;20521;-81
2021/04/17 00:23:24;;;;;;;6.53;5.40;;;11.10;57.20;;;;;;4992543;28;20509;-83
2021/04/17 00:26:35;;;;;;;6.17;5.00;;;11.30;56.30;;;;;;4993125;28;20462;-80
2021/04/17 00:29:24;;;;;;;7.63;5.63;;;11.30;56.10;;;;;;4994372;28;20953;-81
2021/04/17 00:32:16;;;;;;;8.83;6.40;;;11.20;56.10;;;;;;4992938;28;20482;-82
2021/04/17 00:38:41;;;;;;;6.07;5.37;;;11.20;56.30;;;;;;4935943;28;20447;-79
2021/04/17 00:45:17;;;;;;;6.43;5.83;;;11.10;56.50;;;;;;4890227;29;20470;-80
2021/04/17 00:48:32;;;;;;;6.80;5.63;;;11.10;56.50;;;;;;5000709;28;20497;-81
2021/04/17 00:54:39;;;;;;;8.07;5.70;;;10.90;56.50;;;;;;4978004;28;20457;-80
2021/04/17 00:57:26;;;;;;;8.10;5.60;;;10.90;56.60;;;;;;5013078;28;20460;-81
2021/04/17 01:04:15;;;;;;;7.67;5.33;;;10.80;57.00;;;;;;4908095;29;20556;-82
2021/04/17 01:07:08;;;;;;;6.47;5.40;;;10.80;57.00;;;;;;4915589;29;20450;-82
2021/04/17 01:10:42;;;;;;;5.30;4.80;;;10.70;56.90;;;;;;4903746;29;20565;-81
2021/04/17 01:13:47;;;;;;;8.70;5.47;;;10.70;57.30;;;;;;4914922;29;20489;-82
2021/04/17 01:16:34;;;;;;;7.47;5.37;;;10.70;57.20;;;;;;5072545;22;20521;-80
2021/04/17 01:20:08;;;;;;;6.13;4.97;;;10.60;57.40;;;;;;5046973;28;20738;-81
2021/04/17 01:26:51;;;;;;;7.17;5.43;;;10.70;57.20;;;;;;5015745;28;20446;-79
2021/04/17 01:29:54;;;;;;;7.90;5.07;;;10.60;57.50;;;;;;5047195;28;20681;-81
2021/04/17 01:32:44;;;;;;;;;;;;;;;;;;;;;
2021/04/17 01:39:47;;;;;;;;;;;;;;;;;;;;;
2021/04/17 01:42:27;;;;;;;6.03;5.13;;;10.40;57.80;;;;;;5008381;28;20482;-81
2021/04/17 01:45:30;;;;;;;6.33;5.73;;;10.30;57.80;;;;;;4998576;28;20485;-84
2021/04/17 01:48:38;;;;;;;6.13;5.53;;;10.30;57.90;;;;;;4997239;28;20461;-83
2021/04/17 01:51:16;;;;;;;6.53;5.80;;;10.20;57.90;;;;;;5011557;28;20913;-81
2021/04/17 01:54:11;;;;;;;7.60;5.53;;;10.30;57.80;;;;;;5026454;28;20473;-80
2021/04/17 01:57:09;;;;;;;6.00;5.40;;;10.20;58.50;;;;;;5026078;28;21175;-80
2021/04/17 02:00:09;;;;;;;;;;;;;;;;;;;;;
2021/04/17 02:03:19;;;;;;;9.60;6.13;;;10.20;57.90;;;;;;5015231;28;20481;-80
2021/04/17 02:06:02;;;;;;;6.43;5.73;;;10.10;57.70;;;;;;5038955;28;20488;-81
2021/04/17 02:08:36;;;;;;;6.60;5.67;;;10.00;57.80;;;;;;5022076;28;20460;-81
2021/04/17 02:11:24;;;;;;;8.40;5.40;;;10.00;58.40;;;;;;5022184;28;20457;-81
2021/04/17 02:14:13;;;;;;;7.07;5.10;;;9.80;59.50;;;;;;5036161;28;20477;-81
2021/04/17 02:17:30;;;;;;;6.37;5.77;;;10.00;58.90;;;;;;5041696;28;20503;-79
2021/04/17 02:20:50;;;;;;;6.67;4.90;;;9.80;60.00;;;;;;5052662;28;20454;-81
2021/04/17 02:23:37;;;;;;;7.63;4.90;;;9.80;60.60;;;;;;5028308;28;21216;-82
2021/04/17 02:26:33;;;;;;;6.90;5.20;;;9.90;60.20;;;;;;5018412;28;20473;-79
2021/04/17 02:29:59;;;;;;;5.70;5.10;;;9.90;59.80;;;;;;5010582;28;20449;-81
2021/04/17 02:33:11;;;;;;;5.70;4.70;;;9.90;59.70;;;;;;5021814;28;21295;-80
2021/04/17 02:36:12;;;;;;;6.87;5.10;;;9.80;59.90;;;;;;5020934;28;20572;-81
2021/04/17 02:39:11;;;;;;;6.07;4.97;;;9.80;60.30;;;;;;5022486;28;20468;-81
2021/04/17 02:46:04;;;;;;;5.67;4.93;;;9.70;61.10;;;;;;5014185;28;20532;-82
2021/04/17 02:49:08;;;;;;;6.03;5.23;;;9.80;60.30;;;;;;5038905;28;20937;-82
2021/04/17 02:52:11;;;;;;;6.33;5.40;;;9.80;60.10;;;;;;5014884;28;20453;-79
2021/04/17 02:54:56;;;;;;;5.77;4.30;;;9.70;60.80;;;;;;4952998;28;20628;-81
2021/04/17 02:57:57;;;;;;;6.23;5.10;;;9.70;60.20;;;;;;5039409;28;22166;-82
2021/04/17 03:00:52;;;;;;;7.70;5.57;;;9.50;60.90;;;;;;5025249;28;20526;-81
2021/04/17 03:04:09;;;;;;;;;;;;;;;;;;;;;
2021/04/17 03:06:57;;;;;;;5.73;5.23;;;9.50;61.50;;;;;;3122283;26;20476;-81
2021/04/17 03:10:22;;;;;;;;;;;;;;;;;;;;;
2021/04/17 03:13:19;;;;;;;5.33;4.80;;;9.60;60.40;;;;;;4965146;28;20451;-82
2021/04/17 03:15:56;;;;;;;8.40;4.77;;;9.70;59.80;;;;;;4948093;28;20468;-81
2021/04/17 03:18:50;;;;;;;5.53;4.17;;;9.60;60.00;;;;;;4943214;28;21143;-83
2021/04/17 03:25:08;;;;;;;4.37;3.97;;;9.60;59.40;;;;;;4926843;29;20477;-80
2021/04/17 03:27:57;;;;;;;5.37;4.03;;;9.20;59.80;;;;;;4933169;29;21111;-81
2021/04/17 03:30:30;;;;;;;6.97;4.23;;;9.40;59.50;;;;;;4970716;28;20477;-81
2021/04/17 03:33:22;;;;;;;6.57;4.00;;;9.50;59.50;;;;;;5026780;28;20536;-83
2021/04/17 03:35:58;;;;;;;5.17;4.67;;;9.50;59.10;;;;;;5021860;28;20555;-83
2021/04/17 03:38:44;;;;;;;4.47;4.03;;;9.30;59.40;;;;;;5021780;28;20457;-83
2021/04/17 03:41:44;;;;;;;6.30;4.57;;;9.50;59.30;;;;;;5030562;28;20461;-79
2021/04/17 03:44:34;;;;;;;6.37;4.43;;;9.50;59.00;;;;;;5024065;28;20481;-80
2021/04/17 03:47:34;;;;;;;5.40;4.90;;;9.50;59.10;;;;;;5026012;28;20445;-83
2021/04/17 03:50:27;;;;;;;5.23;4.80;;;9.40;58.80;;;;;;5016685;28;20476;-79
2021/04/17 03:53:21;;;;;;;5.23;4.03;;;9.20;59.30;;;;;;5026316;28;20544;-80
2021/04/17 03:56:34;;;;;;;4.03;3.73;;;9.10;59.90;;;;;;5026900;28;20481;-79
2021/04/17 03:59:18;;;;;;;5.87;3.80;;;9.20;59.70;;;;;;5022734;28;21187;-81
2021/04/17 04:02:19;;;;;;;3.73;3.43;;;9.10;60.10;;;;;;5020924;28;21032;-82
2021/04/17 04:05:11;;;;;;;5.53;3.80;;;9.20;59.60;;;;;;5019215;28;20495;-81
2021/04/17 04:08:05;;;;;;;3.83;3.50;;;9.10;59.50;;;;;;5020602;28;20469;-80
2021/04/17 04:10:59;;;;;;;5.27;4.00;;;9.10;59.70;;;;;;4976068;28;21093;-84
2021/04/17 04:13:37;;;;;;;3.90;3.60;;;9.00;59.50;;;;;;4993435;28;20459;-83
2021/04/17 04:16:39;;;;;;;7.67;3.77;;;8.90;59.70;;;;;;5002998;28;20486;-80
2021/04/17 04:19:35;;;;;;;4.23;3.23;;;9.10;59.70;;;;;;4996539;28;20456;-82
2021/04/17 04:22:20;;;;;;;5.07;3.83;;;9.10;59.20;;;;;;4992934;28;20556;-80
2021/04/17 04:25:33;;;;;;;;;;;;;;;;;;;;;
2021/04/17 04:28:30;;;;;;;4.20;3.80;;;9.30;59.10;;;;;;5003230;28;20462;-78
2021/04/17 04:31:17;;;;;;;5.90;3.93;;;9.00;59.60;;;;;;5013362;28;20480;-82
2021/04/17 04:37:13;;;;;;;4.00;3.60;;;8.90;59.90;;;;;;5000027;28;20828;-81
2021/04/17 04:40:00;;;;;;;4.80;3.83;;;8.80;60.20;;;;;;4990502;28;20755;-80
2021/04/17 04:42:34;;;;;;;6.70;3.47;;;8.80;60.80;;;;;;5039268;28;20488;-81
2021/04/17 04:45:18;;;;;;;4.40;4.00;;;8.90;60.50;;;;;;5048232;28;20468;-82
2021/04/17 04:48:28;;;;;;;5.57;3.73;;;8.70;60.60;;;;;;5050029;28;20524;-81
2021/04/17 04:51:03;;;;;;;4.47;3.73;;;8.80;61.30;;;;;;5048927;28;21059;-80
2021/04/17 04:53:58;;;;;;;5.07;3.60;;;8.90;61.00;;;;;;5012482;28;20531;-80
2021/04/17 05:00:37;;;;;;;6.23;3.60;;;8.80;62.10;;;;;;5019784;28;20998;-79
2021/04/17 05:03:28;;;;;;;4.00;3.60;;;8.70;61.90;;;;;;4995748;28;20513;-82
2021/04/17 05:06:29;;;;;;;3.80;3.50;;;8.90;61.80;;;;;;4990300;28;20561;-79
2021/04/17 05:09:40;;;;;;;6.80;4.13;;;9.00;61.20;;;;;;4984744;28;20460;-80
2021/04/17 05:12:45;;;;;;;3.63;3.33;;;9.10;60.70;;;;;;4949306;28;20501;-81
2021/04/17 05:15:48;;;;;;;4.40;4.00;;;9.40;60.00;;;;;;4991333;28;20478;-81
2021/04/17 05:18:42;;;;;;;5.80;3.90;;;9.20;60.20;;;;;;4990532;28;20453;-82
2021/04/17 05:21:52;;;;;;;5.60;3.87;;;9.20;60.00;;;;;;4989284;28;20451;-81
2021/04/17 05:24:41;;;;;;;4.37;3.97;;;9.10;60.20;;;;;;4988812;28;20470;-81
2021/04/17 05:27:33;;;;;;;4.50;3.80;;;9.10;61.50;;;;;;4989787;28;20482;-80
2021/04/17 05:30:40;;;;;;;4.53;4.10;;;9.10;60.80;;;;;;5009236;28;20450;-82
2021/04/17 05:34:10;;;;;;;6.43;4.93;;;9.10;60.60;;;;;;5023597;28;22482;-81
2021/04/17 05:40:18;;;;;;;6.53;4.50;;;9.00;61.70;;;;;;4983631;28;20439;-81
2021/04/17 05:42:55;;;;;;;6.80;4.90;;;8.90;62.00;;;;;;4982658;28;20479;-80
2021/04/17 05:45:54;;;;;;;4.90;4.40;;;8.90;62.30;;;;;;4970108;28;20562;-81
2021/04/17 05:52:19;;;;;;;4.73;4.33;;;9.30;61.50;;;;;;4925483;29;22053;-82
2021/04/17 05:54:57;;;;;;;6.73;6.03;;;9.30;61.30;;;;;;4917875;28;20559;-80
2021/04/17 06:01:56;;;;;;;5.50;5.00;;;9.30;60.60;;;;;;4981042;28;20463;-79
2021/04/17 06:08:13;;;;;;;7.60;4.60;;;9.20;61.20;;;;;;4980815;28;20460;-82
2021/04/17 06:11:06;;;;;;;8.43;4.97;;;9.60;61.60;;;;;;4985780;28;20489;-80
2021/04/17 06:14:14;;;;;;;6.63;5.00;;;10.00;59.20;;;;;;4936792;29;20668;-81
2021/04/17 06:17:06;;;;;;;6.17;5.00;;;11.50;58.60;;;;;;4911160;29;20458;-80
2021/04/17 06:31:18;;;;;;;8.13;4.90;;;16.20;51.40;;;;;;4838517;29;20973;-80
2021/04/17 06:34:08;;;;;;;6.60;5.33;;;16.70;45.20;;;;;;4801108;29;20456;-81
2021/04/17 06:37:23;;;;;;;5.73;5.03;;;17.00;45.80;;;;;;4842385;29;20519;-79
2021/04/17 06:47:18;;;;;;;5.27;4.77;;;18.70;43.00;;;;;;4900566;29;20604;-82
2021/04/17 06:50:44;;;;;;;8.80;5.77;;;20.00;41.90;;;;;;4805634;29;20456;-84
2021/04/17 06:54:00;;;;;;;6.70;5.80;;;22.50;38.30;;;;;;4841989;29;20482;-83
2021/04/17 07:04:46;;;;;;;5.80;5.30;;;25.60;31.50;;;;;;5267445;22;20552;-80
2021/04/17 07:07:41;;;;;;;5.57;5.00;;;25.70;30.40;;;;;;5040895;28;20534;-81
2021/04/17 07:10:37;;;;;;;6.77;5.23;;;23.30;30.10;;;;;;5041482;28;20489;-81
2021/04/17 07:20:47;;;;;;;5.70;5.20;;;22.30;34.70;;;;;;5031508;28;20464;-80
2021/04/17 07:24:16;;;;;;;;;;;;;;;;;;;;;
2021/04/17 07:27:59;;;;;;;5.43;4.87;;;25.40;30.70;;;;;;5033366;28;20433;-81
2021/04/17 07:31:20;;;;;;;5.40;4.43;;;25.10;30.10;;;;;;5015997;28;20462;-80
2021/04/17 07:34:24;;;;;;;5.50;5.00;;;25.80;29.70;;;;;;5031333;28;20457;-81
2021/04/17 07:37:43;;;;;;;5.17;4.77;;;26.40;28.80;;;;;;5017194;28;20847;-81
2021/04/17 07:40:21;;;;;;;5.20;4.70;;;26.70;28.40;;;;;;5027679;28;20465;-82
2021/04/17 07:43:53;;;;;;;7.07;4.60;;;26.70;28.10;;;;;;5035783;28;20524;-79
2021/04/17 07:47:06;;;;;;;6.03;4.43;;;26.80;27.90;;;;;;5043943;28;20468;-80
2021/04/17 07:54:43;;;;;;;4.70;4.17;;;27.10;27.60;;;;;;5010931;28;20461;-80
2021/04/17 07:57:40;;;;;;;4.93;4.40;;;26.80;27.50;;;;;;4983126;28;21080;-81
2021/04/17 08:01:31;;;;;;;4.20;3.50;;;26.90;27.10;;;;;;4999731;28;20425;-81
2021/04/17 08:05:27;;;;;;;4.63;3.80;;;25.80;27.30;;;;;;4933317;28;20502;-80
2021/04/17 08:19:18;;;;;;;3.70;3.33;;;27.10;26.10;;;;;;4697988;28;10001754;-80
2021/04/17 08:26:37;;;;;;;;;;;;;;;;;;;;;
2021/04/17 08:33:38;;;;;;;;;;;;;;;;;;;;;
2021/04/17 08:39:26;;;;;;;9.50;4.03;;;24.30;27.50;;;;;;5029230;28;20548;-80
2021/04/17 08:47:02;;;;;;;3.87;3.43;;;25.50;27.10;;;;;;5039551;28;20476;-79
2021/04/17 08:50:40;;;;;;;7.40;3.73;;;27.40;25.70;;;;;;5044785;28;20448;-80
2021/04/17 08:53:50;;;;;;;6.77;3.33;;;27.40;25.10;;;;;;5044083;28;20429;-80
2021/04/17 09:01:10;;;;;;;5.70;3.80;;;25.90;25.90;;;;;;4988113;28;20759;-80
2021/04/17 09:12:54;;;;;;;4.90;3.83;;;25.70;27.10;;;;;;4924605;29;20557;-83
2021/04/17 09:16:09;;;;;;;4.83;4.33;;;25.00;26.90;;;;;;4851821;29;20872;-78
2021/04/17 09:19:53;;;;;;;4.47;3.80;;;24.40;26.70;;;;;;4839270;29;20863;-81
2021/04/17 09:23:43;;;;;;;7.20;4.30;;;24.00;27.50;;;;;;4763583;30;20486;-79
2021/04/17 09:31:29;;;;;;;;;;;;;;;;;;;;;
2021/04/17 09:42:05;;;;;;;5.80;4.17;;;23.50;27.40;;;;;;4707845;30;20450;-81
2021/04/17 09:45:08;;;;;;;5.10;4.60;;;22.10;29.10;;;;;;4706975;30;20602;-81
2021/04/17 09:48:18;;;;;;;4.00;3.70;;;22.30;29.30;;;;;;4733015;29;20452;-80
2021/04/17 09:55:51;;;;;;;4.20;3.80;;;21.30;29.80;;;;;;4839394;29;20565;-80
2021/04/17 09:58:58;;;;;;;;;;;;;;;;;;;;;
2021/04/17 10:02:15;;;;;;;5.20;4.70;;;19.10;33.70;;;;;;4926539;28;20437;-82
2021/04/17 10:05:34;;;;;;;4.30;3.90;;;18.20;34.10;;;;;;4919607;29;20474;-80
2021/04/17 10:12:33;;;;;;;5.57;3.83;;;17.50;35.60;;;;;;4884939;29;20449;-82
2021/04/17 10:15:42;;;;;;;4.47;4.00;;;17.20;36.10;;;;;;4902117;29;20546;-79
2021/04/17 10:19:04;;;;;;;4.53;3.80;;;17.00;37.20;;;;;;4885375;29;20486;-80
2021/04/17 10:22:22;;;;;;;4.70;4.10;;;17.50;37.40;;;;;;4905188;29;20553;-80
2021/04/17 10:25:55;;;;;;;4.37;3.97;;;18.00;36.10;;;;;;4903401;29;20567;-81
2021/04/17 10:29:46;;;;;;;;;;;;;;;;;;;;;
2021/04/17 10:32:50;;;;;;;3.20;3.00;;;19.60;33.40;;;;;;4889037;29;20450;-83
2021/04/17 10:36:17;;;;;;;3.70;2.97;;;20.70;31.30;;;;;;5041217;22;20468;-83
2021/04/17 10:39:52;;;;;;;3.17;2.87;;;20.00;31.00;;;;;;5024552;28;20456;-80
2021/04/17 10:43:35;;;;;;;3.27;2.77;;;19.20;31.90;;;;;;4970360;28;21356;-81
2021/04/17 10:47:13;;;;;;;2.73;2.53;;;18.40;32.60;;;;;;5020718;28;20490;-81
2021/04/17 10:51:08;;;;;;;5.47;3.50;;;18.10;33.80;;;;;;5045778;28;20441;-82
2021/04/17 10:54:28;;;;;;;5.20;3.13;;;18.60;34.60;;;;;;4989450;28;20460;-82
2021/04/17 10:57:55;;;;;;;5.73;3.40;;;18.90;33.10;;;;;;5029802;28;20441;-79
2021/04/17 11:01:34;;;;;;;4.17;3.53;;;19.40;33.00;;;;;;5023615;28;20450;-80
2021/04/17 11:04:59;;;;;;;4.10;3.20;;;18.60;33.00;;;;;;5012459;28;20500;-79
2021/04/17 11:07:48;;;;;;;3.63;3.23;;;19.30;32.30;;;;;;5026131;28;21205;-81
2021/04/17 11:10:46;;;;;;;4.30;3.90;;;19.20;32.40;;;;;;5047728;28;20518;-82
2021/04/17 11:13:55;;;;;;;4.53;3.73;;;19.20;32.90;;;;;;5034321;28;20460;-81
2021/04/17 11:36:33;;;;;;;5.70;3.97;;;19.40;33.00;;;;;;5037292;28;20473;-80
2021/04/17 11:47:41;;;;;;;;;;;;;;;;;;;;;
2021/04/17 11:50:59;;;;;;;3.47;3.10;;;20.70;30.50;;;;;;4966994;28;20449;-81
2021/04/17 11:54:42;;;;;;;5.20;3.27;;;19.50;31.20;;;;;;4963994;28;21126;-80
2021/04/17 11:58:32;;;;;;;;;;;;;;;;;;;;;
2021/04/17 12:05:33;;;;;;;4.37;3.33;;;18.50;33.90;;;;;;4944502;28;20972;-80
2021/04/17 12:08:11;;;;;;;3.77;3.30;;;18.20;34.10;;;;;;4939940;29;20465;-83
2021/04/17 12:11:10;;;;;;;4.87;4.07;;;18.10;34.00;;;;;;4885856;29;20481;-81
2021/04/17 12:14:22;;;;;;;6.73;3.50;;;17.90;34.20;;;;;;4837546;29;20497;-80
2021/04/17 12:17:42;;;;;;;6.20;4.30;;;17.40;35.00;;;;;;5126237;22;20990;-80
2021/04/17 12:24:37;;;;;;;6.40;3.67;;;17.10;35.90;;;;;;5031213;28;20566;-80
2021/04/17 12:27:25;;;;;;;5.87;3.37;;;16.90;36.00;;;;;;5025302;28;20492;-81
2021/04/17 12:30:59;;;;;;;;;;;;;;;;;;;;;
2021/04/17 12:38:24;;;;;;;5.90;3.60;;;16.70;37.40;;;;;;4798192;29;22274;-81
2021/04/17 12:41:44;;;;;;;5.63;4.07;;;16.60;38.30;;;;;;4829254;29;20470;-81
2021/04/17 12:45:26;;;;;;;5.73;4.47;;;16.70;38.30;;;;;;4849118;29;20517;-79
2021/04/17 13:08:29;;;;;;;4.50;3.90;;;15.70;40.00;;;;;;5009034;28;20496;-81
2021/04/17 13:11:38;;;;;;;7.03;3.40;;;15.90;40.00;;;;;;5001972;28;20480;-80
2021/04/17 13:19:08;;;;;;;4.63;4.10;;;15.90;39.90;;;;;;4862834;29;21254;-79
2021/04/17 13:26:01;;;;;;;3.27;2.43;;;15.60;40.90;;;;;;4812744;29;21530;-80
2021/04/17 13:29:38;;;;;;;5.47;3.30;;;15.80;38.80;;;;;;4787113;29;20459;-80
2021/04/17 13:32:34;;;;;;;4.60;3.30;;;15.60;38.70;;;;;;4746612;30;20454;-81
2021/04/17 13:35:29;;;;;;;6.03;3.40;;;15.40;39.50;;;;;;4747203;30;20505;-80
2021/04/17 13:38:53;;;;;;;3.60;3.20;;;15.60;39.30;;;;;;4707907;30;21062;-79
2021/04/17 13:42:24;;;;;;;5.67;3.47;;;15.70;39.40;;;;;;4798811;29;20455;-80
2021/04/17 13:46:35;;;;;;;;;;;;;;;;;;;;;
2021/04/17 13:50:19;;;;;;;3.93;3.20;;;16.10;39.70;;;;;;4870691;28;20550;-78
2021/04/17 13:53:36;;;;;;;3.93;3.40;;;16.10;39.50;;;;;;4976715;28;20904;-82
2021/04/17 14:02:25;;;;;;;10.03;3.40;;;15.50;39.40;;;;;;4994756;28;20481;-80
2021/04/17 14:06:13;;;;;;;6.43;3.97;;;15.40;40.40;;;;;;4952827;28;20465;-82
2021/04/17 14:09:07;;;;;;;3.83;3.10;;;15.40;41.10;;;;;;4978706;28;20754;-82
2021/04/17 14:12:51;;;;;;;5.03;3.20;;;15.60;41.30;;;;;;4942182;28;20556;-82
2021/04/17 14:15:55;;;;;;;3.00;2.70;;;15.50;39.40;;;;;;4925826;29;20512;-81
2021/04/17 14:33:30;;;;;;;2.60;2.40;;;14.80;39.30;;;;;;4825695;29;20451;-81
2021/04/17 14:40:27;;;;;;;3.43;2.63;;;14.60;38.00;;;;;;4786325;29;20473;-82
2021/04/17 14:43:49;;;;;;;2.40;2.00;;;14.40;38.80;;;;;;4776658;29;20488;-78
2021/04/17 14:47:31;;;;;;;;;;;;;;;;;;;;;
2021/04/17 14:50:51;;;;;;;4.37;2.73;;;14.60;40.00;;;;;;4901775;28;20442;-79
2021/04/17 14:54:31;;;;;;;5.27;3.77;;;14.50;38.80;;;;;;5004722;28;20952;-78
2021/04/17 14:58:12;;;;;;;3.87;3.20;;;14.40;39.40;;;;;;4995495;28;20426;-80
2021/04/17 15:01:24;;;;;;;4.40;2.37;;;14.40;38.90;;;;;;4996258;28;20466;-80
2021/04/17 15:04:28;;;;;;;4.50;2.80;;;14.70;38.20;;;;;;4974052;28;21119;-82
2021/04/17 15:11:33;;;;;;;3.93;2.90;;;14.60;38.00;;;;;;4950764;28;20448;-81
2021/04/17 15:15:17;;;;;;;4.27;2.63;;;14.80;37.90;;;;;;4851985;29;20777;-82
2021/04/17 15:25:43;;;;;;;7.07;3.40;;;14.50;38.20;;;;;;4878628;29;20495;-82
2021/04/17 15:32:55;;;;;;;3.50;3.20;;;14.80;37.90;;;;;;4871112;29;20459;-80
2021/04/17 15:36:19;;;;;;;;;;;;;;;;;;;;;
2021/04/17 15:46:56;;;;;;;6.67;3.40;;;14.90;39.20;;;;;;4837922;29;21984;-83
2021/04/17 15:50:21;;;;;;;4.80;3.20;;;15.10;38.80;;;;;;4862852;29;20630;-81
2021/04/17 15:54:15;;;;;;;5.07;3.33;;;14.90;38.70;;;;;;4825400;29;20475;-81
2021/04/17 16:15:25;;;;;;;6.07;2.83;;;14.80;40.60;;;;;;4902310;23;20459;-80
2021/04/17 16:26:49;;;;;;;5.23;3.73;;;15.00;39.10;;;;;;5043516;23;20513;-81
2021/04/17 16:30:56;;;;;;;;;;;;;;;;;;;;;
2021/04/17 16:44:56;;;;;;;4.00;2.73;;;14.60;39.90;;;;;;4981471;28;20494;-80
2021/04/17 16:51:54;;;;;;;4.37;3.23;;;14.70;39.60;;;;;;4989149;28;20459;-79
2021/04/17 16:55:31;;;;;;;5.87;3.97;;;14.60;40.10;;;;;;5012712;28;20888;-80
2021/04/17 17:01:44;;;;;;;3.20;2.93;;;14.70;40.50;;;;;;4917159;29;20878;-80
2021/04/17 17:05:01;;;;;;;5.20;3.43;;;14.60;40.60;;;;;;4918479;29;20484;-81
2021/04/17 17:12:05;;;;;;;4.70;3.07;;;15.00;40.10;;;;;;4860503;29;20466;-82
2021/04/17 17:15:32;;;;;;;7.80;3.10;;;15.00;39.50;;;;;;4878548;28;20467;-79
2021/04/17 17:18:34;;;;;;;5.90;3.00;;;14.70;39.90;;;;;;4939732;28;20556;-81
2021/04/17 17:22:05;;;;;;;;;;;;;;;;;;;;;
2021/04/17 17:36:09;;;;;;;;;;;;;;;;;;;;;
2021/04/17 17:39:17;;;;;;;5.83;3.40;;;14.60;43.80;;;;;;4917235;29;20461;-82
2021/04/17 17:42:13;;;;;;;4.70;2.70;;;14.70;42.90;;;;;;4915050;29;20465;-80
2021/04/17 18:01:31;;;;;;;4.30;3.30;;;14.50;42.30;;;;;;4759626;29;20442;-80
2021/04/17 18:04:46;;;;;;;;;;;;;;;;;;;;;
2021/04/17 18:08:27;;;;;;;4.47;3.43;;;14.20;42.90;;;;;;4821086;29;20456;-82
2021/04/17 18:12:09;;;;;;;;;;;;;;;;;;;;;
2021/04/17 18:19:05;;;;;;;5.23;2.90;;;14.50;41.40;;;;;;4918571;29;20456;-82
2021/04/17 18:22:00;;;;;;;;;;;;;;;;;;;;;
2021/04/17 18:25:01;;;;;;;4.40;3.60;;;14.30;41.60;;;;;;4926712;29;20490;-81
2021/04/17 18:27:45;;;;;;;5.43;3.40;;;14.50;41.60;;;;;;4922983;29;20478;-80
2021/04/17 18:30:20;;;;;;;12.90;3.47;;;14.30;41.40;;;;;;4922565;29;20462;-80
2021/04/17 18:32:55;;;;;;;3.20;2.70;;;14.20;42.00;;;;;;4911064;28;20567;-79
2021/04/17 18:36:05;;;;;;;6.43;3.10;;;14.40;42.40;;;;;;5008436;28;20892;-82
2021/04/17 18:42:18;;;;;;;4.87;3.50;;;14.20;42.10;;;;;;4675708;28;10000236;-81
2021/04/17 18:45:14;;;;;;;6.40;3.40;;;14.20;41.70;;;;;;5025634;28;20231;-83
2021/04/17 18:47:45;;;;;;;6.80;3.90;;;14.20;40.80;;;;;;5030304;28;20458;-82
2021/04/17 18:50:20;;;;;;;4.80;4.07;;;14.00;40.80;;;;;;5034972;28;20482;-80
2021/04/17 18:52:55;;;;;;;5.97;3.50;;;13.90;40.90;;;;;;5031808;28;20426;-79
2021/04/17 18:55:34;;;;;;;4.77;3.77;;;14.10;41.00;;;;;;5032726;28;20461;-80
2021/04/17 18:58:22;;;;;;;4.03;3.27;;;14.40;40.50;;;;;;5027254;28;20452;-82
2021/04/17 19:00:59;;;;;;;6.30;4.40;;;14.20;40.50;;;;;;5021926;28;20465;-82
2021/04/17 19:03:42;;;;;;;4.07;3.20;;;14.40;40.30;;;;;;5021785;28;20476;-79
2021/04/17 19:06:20;;;;;;;5.10;3.50;;;14.40;40.40;;;;;;5020559;28;20984;-81
2021/04/17 19:08:54;;;;;;;4.97;3.27;;;14.10;40.60;;;;;;5022965;28;20449;-84
2021/04/17 19:11:24;;;;;;;4.13;3.70;;;14.10;40.60;;;;;;5022436;28;20473;-82
2021/04/17 19:13:53;;;;;;;4.23;3.67;;;14.00;41.00;;;;;;5020835;28;20462;-82
2021/04/17 19:16:25;;;;;;;7.07;3.87;;;13.90;41.30;;;;;;5024293;28;20482;-80
2021/04/17 19:19:21;;;;;;;5.27;3.70;;;13.80;41.50;;;;;;5034083;28;20457;-80
2021/04/17 19:22:21;;;;;;;4.23;3.43;;;13.70;41.90;;;;;;5010241;28;20516;-82
2021/04/17 19:25:08;;;;;;;5.73;3.60;;;13.90;42.00;;;;;;5032901;28;20469;-82
2021/04/17 19:28:05;;;;;;;9.33;4.20;;;13.80;42.10;;;;;;5025732;28;20469;-81
2021/04/17 19:30:39;;;;;;;6.10;3.70;;;13.80;42.30;;;;;;5040471;28;20773;-78
2021/04/17 19:33:24;;;;;;;7.27;4.13;;;13.80;42.60;;;;;;5037591;28;20456;-79
2021/04/17 19:36:01;;;;;;;5.57;3.50;;;13.80;42.90;;;;;;5036190;28;20477;-79
2021/04/17 19:38:42;;;;;;;5.13;4.40;;;13.70;43.00;;;;;;5030478;28;20803;-79
2021/04/17 19:41:26;;;;;;;5.13;3.90;;;13.70;43.30;;;;;;5027944;28;21253;-78
2021/04/17 19:44:07;;;;;;;10.83;4.10;;;13.70;43.20;;;;;;5031547;28;20548;-80
2021/04/17 19:46:43;;;;;;;4.40;4.00;;;13.70;43.40;;;;;;5030910;28;20444;-79
2021/04/17 19:49:53;;;;;;;6.00;4.37;;;13.70;43.60;;;;;;5033530;28;20437;-82
2021/04/17 19:52:28;;;;;;;10.20;4.27;;;13.70;43.40;;;;;;5045482;28;20445;-79
2021/04/17 19:55:04;;;;;;;6.80;3.90;;;13.70;43.60;;;;;;5046228;28;20536;-79
2021/04/17 19:57:39;;;;;;;6.13;4.20;;;13.70;43.70;;;;;;5045723;28;20449;-78
2021/04/17 20:00:26;;;;;;;6.47;3.80;;;13.60;43.80;;;;;;5036271;28;20421;-79
2021/04/17 20:02:53;;;;;;;6.07;4.10;;;13.60;43.90;;;;;;5044831;28;20437;-78
2021/04/17 20:05:24;;;;;;;4.63;4.10;;;13.60;44.00;;;;;;5045567;28;20536;-77
2021/04/17 20:07:55;;;;;;;5.83;4.33;;;13.60;44.00;;;;;;5044778;28;20476;-78
2021/04/17 20:10:21;;;;;;;6.37;4.70;;;13.60;44.20;;;;;;5044501;28;20459;-79
2021/04/17 20:12:51;;;;;;;6.43;4.33;;;13.60;44.40;;;;;;5040703;28;20496;-79
2021/04/17 20:15:22;;;;;;;5.83;4.53;;;13.60;44.50;;;;;;5038433;28;20481;-81
2021/04/17 20:18:02;;;;;;;6.57;4.50;;;13.50;44.90;;;;;;5038788;28;20461;-79
2021/04/17 20:20:35;;;;;;;7.33;4.60;;;13.50;45.10;;;;;;5033666;28;21196;-81
2021/04/17 20:23:18;;;;;;;;;;;;;;;;;;;;;
2021/04/17 20:25:47;;;;;;;4.83;4.40;;;13.40;45.40;;;;;;5032377;28;20507;-79
2021/04/17 20:28:24;;;;;;;7.17;5.20;;;13.40;45.60;;;;;;5037508;28;20460;-79
2021/04/17 20:31:02;;;;;;;5.40;4.80;;;13.40;45.90;;;;;;5039431;28;20429;-78
2021/04/17 20:33:35;;;;;;;7.60;4.93;;;13.40;45.90;;;;;;5036762;28;21489;-79
2021/04/17 20:36:17;;;;;;;8.50;5.43;;;13.40;46.10;;;;;;5035371;28;20488;-78
2021/04/17 20:38:49;;;;;;;7.43;5.23;;;13.40;46.30;;;;;;5039121;28;20473;-80
2021/04/17 20:41:23;;;;;;;8.87;5.17;;;13.40;46.50;;;;;;5039081;28;20549;-79
2021/04/17 20:44:09;;;;;;;8.40;5.20;;;13.30;46.60;;;;;;5024805;28;20481;-81
2021/04/17 20:46:45;;;;;;;7.13;4.80;;;13.30;46.90;;;;;;5021041;28;20449;-82
2021/04/17 20:49:17;;;;;;;7.00;5.40;;;13.30;47.10;;;;;;5017594;28;20445;-81
2021/04/17 20:51:54;;;;;;;8.70;7.13;;;13.30;47.30;;;;;;5020470;28;20484;-80
2021/04/17 20:54:26;;;;;;;4.93;4.43;;;13.20;47.50;;;;;;5018500;28;21246;-79
2021/04/17 20:57:01;;;;;;;7.80;5.50;;;13.20;47.60;;;;;;5022286;28;20564;-82
2021/04/17 20:59:33;;;;;;;5.83;5.33;;;13.10;47.90;;;;;;5021952;28;20492;-81
2021/04/17 21:02:11;;;;;;;7.17;5.80;;;13.10;48.20;;;;;;5022270;28;20460;-78
2021/04/17 21:04:40;;;;;;;6.20;5.10;;;13.10;49.00;;;;;;5018531;28;20497;-81
2021/04/17 21:07:13;;;;;;;7.03;5.63;;;13.20;48.70;;;;;;5018991;28;20457;-79
2021/04/17 21:09:44;;;;;;;6.40;5.23;;;13.10;48.90;;;;;;5020552;28;20485;-82
2021/04/17 21:12:16;;;;;;;7.40;5.40;;;13.00;49.00;;;;;;5023866;28;20483;-80
2021/04/17 21:14:45;;;;;;;9.23;5.40;;;13.00;49.30;;;;;;5022724;28;20573;-82
2021/04/17 21:17:19;;;;;;;5.90;5.30;;;13.00;49.60;;;;;;5020829;28;20556;-81
2021/04/17 21:19:49;;;;;;;6.13;4.90;;;13.00;49.70;;;;;;5031898;28;20484;-81
2021/04/17 21:22:25;;;;;;;9.67;6.97;;;13.00;49.90;;;;;;5025033;28;20454;-79
2021/04/17 21:25:02;;;;;;;10.23;5.13;;;12.90;50.00;;;;;;5022327;28;21177;-78
2021/04/17 21:27:29;;;;;;;8.07;4.90;;;12.90;50.30;;;;;;5020332;28;20947;-79
2021/04/17 21:30:00;;;;;;;7.30;5.07;;;12.90;50.50;;;;;;5020448;28;20460;-83
2021/04/17 21:32:30;;;;;;;6.40;4.83;;;12.80;50.50;;;;;;5020599;28;20493;-81
2021/04/17 21:35:06;;;;;;;9.10;5.17;;;12.90;50.80;;;;;;5032899;28;21074;-81
2021/04/17 21:38:36;;;;;;;8.13;4.50;;;12.80;50.80;;;;;;5038031;28;20479;-81
2021/04/17 21:41:22;;;;;;;6.07;5.47;;;13.00;50.80;;;;;;5012932;28;20801;-80
2021/04/17 21:43:55;;;;;;;6.27;4.60;;;12.90;50.90;;;;;;5023477;28;20516;-79
2021/04/17 21:46:35;;;;;;;7.20;5.17;;;12.80;51.00;;;;;;5017674;28;20538;-82
2021/04/17 21:49:14;;;;;;;7.50;5.37;;;12.80;51.20;;;;;;5022111;28;20447;-80
2021/04/17 21:51:44;;;;;;;10.00;4.77;;;12.80;51.20;;;;;;5024236;28;20454;-81
2021/04/17 21:54:10;;;;;;;5.93;5.17;;;12.90;51.00;;;;;;5018562;28;20455;-82
2021/04/17 21:56:41;;;;;;;6.13;5.53;;;12.80;51.00;;;;;;5016228;28;20922;-79
2021/04/17 21:59:08;;;;;;;5.43;4.30;;;12.70;51.30;;;;;;5015171;28;20453;-80
2021/04/17 22:01:47;;;;;;;8.47;4.50;;;12.70;51.60;;;;;;5013433;28;20453;-81
2021/04/17 22:04:23;;;;;;;6.00;5.20;;;12.80;51.50;;;;;;5015739;28;20477;-81
2021/04/17 22:06:57;;;;;;;5.67;4.30;;;13.20;51.00;;;;;;5015595;28;20438;-83
2021/04/17 22:09:35;;;;;;;8.23;3.70;;;13.10;50.50;;;;;;5016829;28;20445;-81